Time;durP1;ratioP1;P1;durP2;ratioP2;P2;SDS_P1;SDS_P2;PMS_P1;PMS_P2;Temp;Humidity;BMP_temperature;BMP_pressure;BME280_temperature;BME280_humidity;BME280_pressure;Samples;Min_cycle;Max_cycle;Signal;HPM_P1;HPM_P2
2022/07/24 00:00:21;;;;;;;4.27;3.87;;;;;;;22.74;56.81;97898.63;6205306;28;20625;-86
2022/07/24 00:03:23;;;;;;;4.57;3.77;;;;;;;22.77;57.22;97895.56;6206675;28;20236;-85
2022/07/24 00:06:31;;;;;;;4.03;3.67;;;;;;;22.77;56.73;97900.94;6203521;28;20243;-86
2022/07/24 00:09:33;;;;;;;4.17;3.70;;;;;;;22.67;57.38;97894.19;6187827;28;20243;-86
2022/07/24 00:12:36;;;;;;;4.23;3.80;;;;;;;22.65;57.26;97885.50;6196422;28;20229;-86
2022/07/24 00:15:38;;;;;;;4.07;3.77;;;;;;;22.63;57.52;97891.09;6202623;28;20224;-85
2022/07/24 00:18:40;;;;;;;4.53;4.13;;;;;;;22.69;57.78;97897.53;6196848;28;20240;-86
2022/07/24 00:21:42;;;;;;;4.53;3.75;;;;;;;22.62;58.10;97892.09;6200805;28;20217;-86
2022/07/24 00:24:44;;;;;;;4.70;4.07;;;;;;;22.57;58.26;97893.69;6203229;28;20780;-86
2022/07/24 00:27:46;;;;;;;4.87;4.00;;;;;;;22.50;58.55;97890.13;6219696;28;20321;-86
2022/07/24 00:30:49;;;;;;;4.23;3.80;;;;;;;22.56;58.29;97900.13;6219694;28;20243;-86
2022/07/24 00:33:51;;;;;;;5.20;4.00;;;;;;;22.56;58.14;97900.13;6209684;28;20720;-85
2022/07/24 00:36:54;;;;;;;4.20;3.80;;;;;;;22.55;57.97;97896.59;6226723;28;20234;-85
2022/07/24 00:39:57;;;;;;;9.47;4.13;;;;;;;22.49;58.48;97891.97;6216066;28;20231;-86
2022/07/24 00:42:59;;;;;;;4.27;3.87;;;;;;;22.34;59.16;97902.81;6234235;28;20592;-85
2022/07/24 00:46:01;;;;;;;5.43;4.03;;;;;;;22.23;59.42;97897.13;6234559;28;20231;-86
2022/07/24 00:49:05;;;;;;;3.90;3.57;;;;;;;22.19;59.70;97901.19;6234936;28;20715;-86
2022/07/24 00:52:19;;;;;;;3.73;3.43;;;;;;;22.18;59.59;97895.00;6216938;28;20676;-87
2022/07/24 00:55:21;;;;;;;4.00;3.70;;;;;;;22.17;59.50;97898.69;6234570;28;20242;-87
2022/07/24 00:58:24;;;;;;;4.80;4.10;;;;;;;22.17;59.38;97897.88;6233715;28;20230;-86
2022/07/24 01:01:26;;;;;;;4.30;3.93;;;;;;;22.20;58.54;97906.38;6233853;28;20715;-87
2022/07/24 01:04:28;;;;;;;4.33;3.93;;;;;;;22.19;58.79;97912.78;6216707;28;20236;-86
2022/07/24 01:07:31;;;;;;;4.33;3.93;;;;;;;22.15;59.05;97910.69;6199539;28;20235;-86
2022/07/24 01:10:33;;;;;;;4.93;4.50;;;;;;;22.07;59.40;97906.25;6233299;28;20250;-86
2022/07/24 01:13:35;;;;;;;4.73;4.20;;;;;;;22.01;59.62;97913.22;6232492;28;20219;-86
2022/07/24 01:16:38;;;;;;;5.03;3.97;;;;;;;21.99;59.54;97912.56;6200269;28;20238;-86
2022/07/24 01:19:40;;;;;;;4.33;3.90;;;;;;;22.01;59.45;97912.38;6233413;28;20282;-86
2022/07/24 01:22:42;;;;;;;6.43;4.40;;;;;;;21.93;59.81;97909.78;6233457;28;20598;-87
2022/07/24 01:25:44;;;;;;;4.80;3.87;;;;;;;21.87;59.79;97915.91;6215761;28;20235;-86
2022/07/24 01:28:47;;;;;;;4.70;4.10;;;;;;;21.79;60.33;97903.41;6215517;28;20654;-86
2022/07/24 01:31:49;;;;;;;4.37;3.97;;;;;;;21.79;59.51;97905.25;6213753;28;20236;-87
2022/07/24 01:34:51;;;;;;;5.57;4.43;;;;;;;;;;6200029;28;20239;-86
2022/07/24 01:37:54;;;;;;;5.87;4.20;;;;;;;21.66;60.60;97916.69;6199665;28;20237;-87
2022/07/24 01:40:56;;;;;;;5.03;4.30;;;;;;;21.63;60.36;97917.91;6199094;28;20719;-86
2022/07/24 01:43:58;;;;;;;4.53;4.03;;;;;;;21.55;61.55;97914.47;6215635;28;20243;-87
2022/07/24 01:47:00;;;;;;;5.30;4.80;;;;;;;21.50;61.59;97916.88;6199687;28;20702;-87
2022/07/24 01:50:03;;;;;;;5.30;4.80;;;;;;;21.45;61.63;97914.78;6214873;28;20234;-87
2022/07/24 01:53:05;;;;;;;6.03;4.60;;;;;;;21.45;61.62;97920.13;6215582;28;20243;-87
2022/07/24 01:56:07;;;;;;;5.20;4.23;;;;;;;21.43;62.03;97914.13;6231478;28;20274;-86
2022/07/24 01:59:11;;;;;;;4.90;4.50;;;;;;;21.36;62.04;97911.31;6215698;28;20228;-86
2022/07/24 02:02:14;;;;;;;4.70;4.30;;;;;;;21.30;62.82;97908.56;6198765;28;20228;-86
2022/07/24 02:05:16;;;;;;;4.47;4.07;;;;;;;21.19;63.44;97909.84;6232439;28;20232;-87
2022/07/24 02:08:18;;;;;;;4.77;4.30;;;;;;;21.09;63.72;97909.25;6214236;28;20610;-86
2022/07/24 02:11:20;;;;;;;5.17;4.67;;;;;;;21.05;63.98;97902.59;6198338;28;20224;-86
2022/07/24 02:14:22;;;;;;;5.23;4.77;;;;;;;20.93;64.63;97910.25;6206806;28;20294;-86
2022/07/24 02:17:25;;;;;;;5.73;5.13;;;;;;;20.87;64.92;97910.97;6199613;28;20236;-87
2022/07/24 02:20:28;;;;;;;5.63;4.53;;;;;;;20.88;64.77;97909.13;6198504;28;20581;-86
2022/07/24 02:23:30;;;;;;;5.23;4.50;;;;;;;20.91;64.57;97909.59;6214823;28;20243;-87
2022/07/24 02:26:33;;;;;;;4.87;4.47;;;;;;;20.91;64.94;97901.56;6231282;28;20239;-86
2022/07/24 02:29:35;;;;;;;6.37;4.87;;;;;;;20.81;65.16;97911.72;6231436;28;20235;-86
2022/07/24 02:32:37;;;;;;;5.00;4.57;;;;;;;20.78;65.52;97916.59;6215522;28;20311;-87
2022/07/24 02:35:39;;;;;;;5.07;4.57;;;;;;;20.70;65.72;97914.00;6230880;28;20242;-86
2022/07/24 02:38:41;;;;;;;5.10;4.50;;;;;;;20.73;65.87;97919.84;6199743;28;20332;-86
2022/07/24 02:41:44;;;;;;;5.27;4.77;;;;;;;20.73;65.88;97917.16;6215130;28;20608;-86
2022/07/24 02:44:46;;;;;;;5.00;4.60;;;;;;;20.70;66.12;97924.72;6218858;28;20238;-87
2022/07/24 02:47:54;;;;;;;5.37;4.77;;;;;;;20.72;66.16;97928.91;6219574;28;20227;-87
2022/07/24 02:50:56;;;;;;;5.03;4.63;;;;;;;20.72;66.30;97920.00;6219464;28;20239;-85
2022/07/24 02:53:58;;;;;;;6.37;4.93;;;;;;;20.69;66.42;97925.72;6216544;28;20232;-87
2022/07/24 02:57:00;;;;;;;4.50;4.10;;;;;;;20.60;66.37;97928.50;6216865;28;20684;-86
2022/07/24 03:00:08;;;;;;;5.83;4.53;;;;;;;20.57;66.88;97939.56;6215084;28;20576;-85
2022/07/24 03:03:10;;;;;;;4.73;4.33;;;;;;;20.52;66.96;97941.97;6199810;28;20210;-87
2022/07/24 03:06:13;;;;;;;5.20;4.70;;;;;;;20.49;67.39;97939.63;6199167;28;20228;-84
2022/07/24 03:09:15;;;;;;;5.37;4.70;;;;;;;20.48;67.40;97946.00;6229579;28;20212;-87
2022/07/24 03:12:17;;;;;;;6.60;5.30;;;;;;;20.45;67.88;97945.56;6205558;28;20703;-88
2022/07/24 03:15:19;;;;;;;6.47;5.33;;;;;;;20.40;68.06;97942.56;6213637;28;20714;-88
2022/07/24 03:18:21;;;;;;;6.17;5.43;;;;;;;20.33;68.29;97950.44;6229605;28;20219;-87
2022/07/24 03:21:24;;;;;;;6.43;5.83;;;;;;;20.25;68.94;97951.34;6213657;28;20224;-88
2022/07/24 03:24:46;;;;;;;6.30;5.70;;;;;;;20.21;69.20;97957.22;6199007;28;20273;-87
2022/07/24 03:27:50;;;;;;;7.10;5.73;;;;;;;20.14;69.46;97967.84;6203432;28;20240;-88
2022/07/24 03:30:52;;;;;;;6.87;6.23;;;;;;;20.12;69.61;97969.84;6211049;28;20224;-87
2022/07/24 03:33:54;;;;;;;6.37;5.77;;;;;;;20.10;69.40;97969.19;6196919;28;20239;-87
2022/07/24 03:36:56;;;;;;;7.37;6.63;;;;;;;20.07;69.83;97968.69;6180862;28;20233;-87
2022/07/24 03:39:58;;;;;;;6.23;5.63;;;;;;;20.10;69.64;97976.38;6214057;28;20235;-88
2022/07/24 03:43:02;;;;;;;6.63;5.90;;;;;;;20.05;69.94;97970.72;6196681;28;21103;-87
2022/07/24 03:46:04;;;;;;;6.47;5.57;;;;;;;20.02;70.03;97974.59;6205112;28;20615;-87
2022/07/24 03:49:07;;;;;;;6.13;5.53;;;;;;;19.98;70.71;97978.63;6221087;28;20240;-88
2022/07/24 03:52:10;;;;;;;6.57;5.70;;;;;;;19.94;70.73;97977.31;6206145;28;20239;-88
2022/07/24 03:55:13;;;;;;;7.77;6.57;;;;;;;19.94;70.68;97979.16;6189038;28;20232;-87
2022/07/24 03:58:15;;;;;;;6.77;6.07;;;;;;;19.96;70.76;97985.19;6221477;28;20782;-87
2022/07/24 04:01:17;;;;;;;6.63;6.03;;;;;;;19.99;70.44;97987.50;6203435;28;20258;-87
2022/07/24 04:04:19;;;;;;;6.63;6.03;;;;;;;20.01;70.26;97993.50;6205673;28;20240;-88
2022/07/24 04:07:22;;;;;;;6.63;5.87;;;;;;;20.02;70.56;97993.34;6187524;28;20243;-88
2022/07/24 04:10:24;;;;;;;7.40;6.70;;;;;;;20.10;70.42;98000.50;6204969;28;20655;-88
2022/07/24 04:13:31;;;;;;;6.93;6.33;;;;;;;20.16;70.26;98007.84;6200113;28;20706;-89
2022/07/24 04:16:33;;;;;;;6.83;6.17;;;;;;;20.22;69.82;98004.47;6186569;28;20236;-87
2022/07/24 04:19:36;;;;;;;7.70;6.90;;;;;;;20.31;69.78;98014.13;6204431;28;20224;-88
2022/07/24 04:22:38;;;;;;;8.07;7.30;;;;;;;20.40;69.22;98025.66;6187269;28;20239;-88
2022/07/24 04:25:43;;;;;;;7.00;6.40;;;;;;;20.42;69.22;98021.81;6187698;28;20286;-88
2022/07/24 04:28:46;;;;;;;6.80;6.20;;;;;;;20.49;68.78;98025.44;6219200;28;20308;-88
2022/07/24 04:31:48;;;;;;;8.27;6.97;;;;;;;20.50;68.76;98024.44;6203775;28;20240;-88
2022/07/24 04:34:51;;;;;;;7.67;6.60;;;;;;;20.52;68.76;98017.06;6205202;28;20232;-88
2022/07/24 04:37:53;;;;;;;7.80;6.70;;;;;;;20.53;68.70;98029.44;6187640;28;20224;-88
2022/07/24 04:40:55;;;;;;;7.67;6.80;;;;;;;20.63;68.31;98034.59;6203786;28;20224;-88
2022/07/24 04:43:57;;;;;;;7.20;6.50;;;;;;;20.68;68.14;98047.44;6187444;28;20225;-87
2022/07/24 04:46:59;;;;;;;7.47;6.70;;;;;;;20.78;67.61;98054.25;6187933;28;20708;-87
2022/07/24 04:50:04;;;;;;;7.20;6.50;;;;;;;20.79;67.78;98057.78;6203787;28;20591;-88
2022/07/24 04:53:06;;;;;;;7.40;6.70;;;;;;;20.75;67.53;98056.47;6202991;28;20231;-90
2022/07/24 04:56:09;;;;;;;8.07;7.33;;;;;;;20.68;68.28;98061.69;6203727;28;20705;-87
2022/07/24 04:59:11;;;;;;;7.63;6.90;;;;;;;20.61;68.08;98064.25;6219803;28;20259;-88
2022/07/24 05:02:13;;;;;;;6.80;6.10;;;;;;;20.63;68.06;98066.78;6186635;28;20228;-87
2022/07/24 05:05:15;;;;;;;7.27;6.67;;;;;;;20.62;68.34;98065.09;6205018;28;20246;-88
2022/07/24 05:08:17;;;;;;;8.03;7.33;;;;;;;20.57;68.60;98073.66;6195150;28;20236;-86
2022/07/24 05:11:19;;;;;;;7.70;7.03;;;;;;;20.52;68.94;98073.38;6210733;28;20254;-86
2022/07/24 05:14:22;;;;;;;7.93;7.23;;;;;;;20.52;68.77;98069.84;6188466;28;20239;-86
2022/07/24 05:17:24;;;;;;;8.07;7.23;;;;;;;20.49;68.58;98070.19;6203998;28;20236;-85
2022/07/24 05:20:26;;;;;;;7.40;6.70;;;;;;;20.52;68.23;98073.38;6223286;28;20224;-85
2022/07/24 05:23:28;;;;;;;8.67;7.80;;;;;;;20.47;67.90;98073.03;6223328;28;20232;-85
2022/07/24 05:26:34;;;;;;;8.47;7.67;;;;;;;20.52;67.67;98078.72;6213325;28;20639;-85
2022/07/24 05:29:36;;;;;;;8.13;7.33;;;;;;;20.58;67.45;98077.19;6198909;28;20272;-86
2022/07/24 05:32:42;;;;;;;8.10;7.27;;;;;;;20.65;67.08;98075.47;6216241;28;20223;-85
2022/07/24 05:35:44;;;;;;;7.37;6.77;;;;;;;20.71;66.81;98073.91;6215115;28;20437;-85
2022/07/24 05:38:49;;;;;;;7.50;6.80;;;;;;;20.80;66.44;98076.38;6214601;28;20219;-87
2022/07/24 05:41:51;;;;;;;7.27;6.63;;;;;;;20.90;65.86;98078.81;6232259;28;20232;-86
2022/07/24 05:44:54;;;;;;;7.83;6.57;;;;;;;20.91;65.92;98077.81;6214055;28;20227;-86
2022/07/24 05:47:56;;;;;;;6.70;6.00;;;;;;;20.98;65.35;98086.81;6197790;28;20305;-85
2022/07/24 05:50:58;;;;;;;7.10;6.47;;;;;;;21.03;64.68;98080.91;6214637;28;20236;-86
2022/07/24 05:54:02;;;;;;;6.73;6.17;;;;;;;21.05;64.18;98081.59;6213305;28;20239;-85
2022/07/24 05:57:04;;;;;;;6.83;6.23;;;;;;;21.08;63.14;98076.66;6231995;28;20579;-87
2022/07/24 06:00:11;;;;;;;7.00;6.40;;;;;;;21.11;62.24;98072.78;6213955;28;20200;-86
2022/07/24 06:03:20;;;;;;;6.30;5.80;;;;;;;21.10;62.34;98077.31;6198960;28;20212;-86
2022/07/24 06:06:22;;;;;;;6.30;5.70;;;;;;;21.14;61.75;98072.44;6198931;28;20600;-86
2022/07/24 06:09:24;;;;;;;6.60;6.00;;;;;;;21.18;61.92;98074.59;6213521;28;20603;-87
2022/07/24 06:12:26;;;;;;;6.37;5.50;;;;;;;21.21;60.24;98073.41;6213674;28;20239;-86
2022/07/24 06:15:29;;;;;;;6.13;5.60;;;;;;;21.27;59.01;98078.88;6189271;28;20235;-86
2022/07/24 06:18:31;;;;;;;6.03;5.53;;;;;;;21.34;58.51;98071.81;6226001;28;20699;-88
2022/07/24 06:21:33;;;;;;;5.60;5.10;;;;;;;21.43;57.47;98072.56;6213194;28;20259;-88
2022/07/24 06:24:35;;;;;;;5.30;4.87;;;;;;;21.52;57.71;98074.16;6197462;28;20235;-87
2022/07/24 06:27:48;;;;;;;5.63;4.70;;;;;;;21.57;57.44;98079.78;6196778;28;20240;-88
2022/07/24 06:30:50;;;;;;;6.10;4.47;;;;;;;21.60;55.69;98078.59;6212321;28;20438;-87
2022/07/24 06:33:52;;;;;;;5.10;4.40;;;;;;;21.70;55.14;98079.16;6197855;28;20227;-87
2022/07/24 06:36:56;;;;;;;5.43;4.93;;;;;;;21.85;54.25;98082.72;6212329;28;20239;-87
2022/07/24 06:40:03;;;;;;;5.77;5.17;;;;;;;22.05;54.71;98088.41;6208568;28;20383;-87
2022/07/24 06:43:05;;;;;;;5.27;4.43;;;;;;;22.19;53.49;98084.03;6206676;28;20260;-87
2022/07/24 06:46:08;;;;;;;4.73;4.33;;;;;;;22.36;52.58;98094.38;6190156;28;20244;-88
2022/07/24 06:49:10;;;;;;;4.37;3.97;;;;;;;22.61;51.30;98089.53;6206663;28;20243;-88
2022/07/24 06:52:12;;;;;;;4.80;4.40;;;;;;;22.79;49.77;98089.97;6208001;28;20236;-88
2022/07/24 06:55:14;;;;;;;5.83;4.63;;;;;;;22.90;49.90;98085.13;6207798;28;20368;-89
2022/07/24 06:58:16;;;;;;;4.43;4.03;;;;;;;23.09;49.59;98096.09;6229354;28;20223;-87
2022/07/24 07:01:19;;;;;;;3.80;3.50;;;;;;;23.39;49.37;98095.94;6229073;28;20713;-87
2022/07/24 07:04:22;;;;;;;4.17;3.73;;;;;;;23.66;47.40;98091.66;6214084;28;20703;-87
2022/07/24 07:07:24;;;;;;;4.20;3.80;;;;;;;23.89;45.99;98100.31;6196354;28;20627;-88
2022/07/24 07:10:27;;;;;;;3.93;3.60;;;;;;;24.15;45.44;98089.72;6213543;28;20579;-87
2022/07/24 07:13:29;;;;;;;4.60;3.90;;;;;;;24.35;45.03;98089.00;6205404;28;20242;-88
2022/07/24 07:16:31;;;;;;;4.30;3.93;;;;;;;24.61;44.61;98089.94;6213224;28;20235;-87
2022/07/24 07:19:33;;;;;;;4.77;3.80;;;;;;;24.84;44.01;98077.97;6212633;28;20309;-88
2022/07/24 07:22:36;;;;;;;3.70;3.40;;;;;;;24.98;43.10;98075.13;6196992;28;20236;-87
2022/07/24 07:25:57;;;;;;;4.03;3.63;;;;;;;25.18;42.84;98077.84;6217896;28;20602;-87
2022/07/24 07:29:00;;;;;;;5.20;3.75;;;;;;;25.23;43.26;98077.25;6197247;28;20239;-88
2022/07/24 07:32:03;;;;;;;5.10;4.20;;;;;;;25.21;41.48;98084.72;6235367;28;20231;-88
2022/07/24 07:35:06;;;;;;;4.10;3.70;;;;;;;25.46;41.59;98079.50;6190969;28;20231;-88
2022/07/24 07:38:22;;;;;;;6.20;3.17;;;;;;;25.75;41.10;98081.84;6198257;28;20315;-89
2022/07/24 07:41:27;;;;;;;4.57;3.60;;;;;;;26.00;40.70;98084.72;6220814;28;20342;-88
2022/07/24 07:44:30;;;;;;;4.53;3.50;;;;;;;25.74;40.80;98088.28;6210016;28;20578;-87
2022/07/24 07:47:37;;;;;;;3.90;3.58;;;;;;;26.08;40.78;98084.47;6216520;28;20619;-88
2022/07/24 07:50:39;;;;;;;5.63;3.63;;;;;;;26.28;40.03;98089.88;6217151;28;20230;-88
2022/07/24 07:53:41;;;;;;;4.15;3.85;;;;;;;26.50;39.73;98096.66;6233819;28;20365;-88
2022/07/24 07:56:44;;;;;;;3.80;3.50;;;;;;;26.89;38.27;98092.94;6199810;28;20227;-87
2022/07/24 07:59:46;;;;;;;4.03;3.58;;;;;;;27.09;38.11;98090.97;6214492;28;20243;-88
2022/07/24 08:02:48;;;;;;;4.47;3.53;;;;;;;27.18;38.13;98089.66;6213273;28;20231;-88
2022/07/24 08:05:50;;;;;;;4.90;3.42;;;;;;;27.31;37.78;98093.34;6211086;28;20242;-88
2022/07/24 08:09:00;;;;;;;3.80;3.47;;;;;;;27.24;37.24;98095.28;6212903;28;20236;-88
2022/07/24 08:12:04;;;;;;;5.22;3.85;;;;;;;27.53;36.54;98103.59;6197147;28;20285;-88
2022/07/24 08:15:07;;;;;;;3.67;3.35;;;;;;;27.62;36.10;98089.78;6228253;28;20223;-88
2022/07/24 08:18:09;;;;;;;3.50;3.20;;;;;;;27.77;34.76;98091.09;6213614;28;20703;-88
2022/07/24 08:21:12;;;;;;;3.80;3.50;;;;;;;27.82;34.73;98094.00;6201468;28;20208;-88
2022/07/24 08:24:20;;;;;;;3.55;3.25;;;;;;;27.83;34.41;98100.25;6216346;28;20273;-89
2022/07/24 08:27:22;;;;;;;3.58;3.38;;;;;;;28.25;33.85;98104.84;6218047;28;20608;-88
2022/07/24 08:30:26;;;;;;;3.40;3.10;;;;;;;28.92;33.95;98094.03;6198920;28;20715;-88
2022/07/24 08:33:28;;;;;;;3.67;3.13;;;;;;;29.27;33.12;98091.44;6187632;28;20238;-89
2022/07/24 08:36:31;;;;;;;3.65;3.33;;;;;;;29.62;32.95;98099.72;6211716;28;20231;-88
2022/07/24 08:39:33;;;;;;;3.88;3.53;;;;;;;29.64;32.49;98103.03;6196174;28;20246;-89
2022/07/24 08:42:36;;;;;;;5.72;3.65;;;;;;;29.84;32.45;98099.97;6203913;28;20231;-88
2022/07/24 08:45:41;;;;;;;4.00;3.70;;;;;;;30.01;32.86;98101.78;6195167;28;20228;-88
2022/07/24 08:48:46;;;;;;;6.10;3.67;;;;;;;30.05;31.80;98100.22;6196803;28;20252;-89
2022/07/24 08:51:50;;;;;;;3.67;3.45;;;;;;;30.20;31.29;98098.91;6195503;28;20235;-89
2022/07/24 08:54:53;;;;;;;4.47;3.88;;;;;;;29.82;31.25;98099.38;6198359;28;20231;-88
2022/07/24 08:57:57;;;;;;;4.97;3.65;;;;;;;29.86;31.28;98100.53;6191353;28;20228;-88
2022/07/24 09:00:59;;;;;;;4.07;3.10;;;;;;;30.12;30.63;98097.38;6191480;28;20235;-88
2022/07/24 09:04:02;;;;;;;4.03;3.63;;;;;;;30.30;30.72;98099.16;6224483;28;20314;-89
2022/07/24 09:07:08;;;;;;;4.53;3.45;;;;;;;30.46;30.29;98115.56;6215656;28;20803;-88
2022/07/24 09:10:17;;;;;;;3.42;3.13;;;;;;;30.86;29.41;98105.78;6199843;28;20338;-88
2022/07/24 09:13:19;;;;;;;3.25;2.95;;;;;;;30.81;28.98;98096.44;6207500;28;20766;-88
2022/07/24 09:16:25;;;;;;;3.88;3.08;;;;;;;30.93;28.76;98101.84;6212914;28;20224;-88
2022/07/24 09:19:28;;;;;;;2.95;2.75;;;;;;;31.02;29.07;98100.41;6213766;28;20648;-88
2022/07/24 09:22:41;;;;;;;3.88;3.58;;;;;;;31.43;28.50;98099.28;6192471;28;20303;-89
2022/07/24 09:25:54;;;;;;;3.53;3.22;;;;;;;31.76;28.13;98103.09;6191091;28;20249;-88
2022/07/24 09:28:56;;;;;;;4.18;3.30;;;;;;;31.90;28.27;98102.53;6214571;28;20291;-89
2022/07/24 09:32:01;;;;;;;4.18;3.35;;;;;;;31.94;27.99;98104.75;6186985;28;20229;-86
2022/07/24 09:35:04;;;;;;;3.53;3.20;;;;;;;31.82;27.82;98107.56;6199265;28;20221;-88
2022/07/24 09:38:12;;;;;;;3.17;2.88;;;;;;;31.88;27.34;98112.03;6159147;28;20252;-89
2022/07/24 09:41:24;;;;;;;3.10;2.85;;;;;;;31.92;26.96;98101.44;6176065;28;20617;-88
2022/07/24 09:44:29;;;;;;;2.97;2.78;;;;;;;32.38;26.47;98106.53;6185684;28;20240;-88
2022/07/24 09:47:34;;;;;;;2.90;2.70;;;;;;;32.44;25.99;98096.50;6199852;28;20233;-89
2022/07/24 09:50:38;;;;;;;3.13;2.47;;;;;;;32.81;25.65;98103.00;6183545;28;20235;-89
2022/07/24 09:53:41;;;;;;;3.15;2.95;;;;;;;33.17;24.67;98076.84;6180734;28;20716;-89
2022/07/24 09:56:44;;;;;;;2.78;2.58;;;;;;;33.36;25.22;98080.06;6177939;28;20744;-88
2022/07/24 09:59:57;;;;;;;2.75;2.55;;;;;;;33.30;24.95;98075.66;6171894;28;20276;-88
2022/07/24 10:03:04;;;;;;;2.95;2.58;;;;;;;33.41;25.46;98076.56;6210567;28;20584;-87
2022/07/24 10:06:09;;;;;;;3.05;2.50;;;;;;;33.56;25.02;98072.03;6210226;28;20772;-88
2022/07/24 10:09:12;;;;;;;2.75;2.55;;;;;;;33.94;24.69;98078.41;6183870;28;20213;-88
2022/07/24 10:12:17;;;;;;;3.47;2.60;;;;;;;34.12;23.99;98077.13;6216372;28;20222;-88
2022/07/24 10:15:19;;;;;;;2.95;2.65;;;;;;;34.50;23.76;98071.34;6198888;28;20201;-88
2022/07/24 10:18:32;;;;;;;3.20;2.78;;;;;;;34.63;23.52;98070.03;6183191;28;20257;-87
2022/07/24 10:21:37;;;;;;;3.50;3.20;;;;;;;34.01;23.65;98057.06;6183673;28;20221;-88
2022/07/24 10:24:54;;;;;;;3.22;2.92;;;;;;;33.78;24.79;98058.28;6199194;28;20609;-89
2022/07/24 10:28:01;;;;;;;3.15;2.95;;;;;;;33.69;24.09;98057.91;6206534;28;20236;-89
2022/07/24 10:31:06;;;;;;;4.80;2.97;;;;;;;33.15;25.08;98053.56;6206281;28;20240;-89
2022/07/24 10:34:47;;;;;;;3.08;2.72;;;;;;;32.70;24.35;98057.47;6222580;28;20268;-89
2022/07/24 10:38:06;;;;;;;4.50;3.30;;;;;;;33.14;24.79;98065.63;6171570;28;20311;-88
2022/07/24 10:41:22;;;;;;;3.90;3.60;;;;;;;33.73;24.46;98058.22;6222745;28;20235;-88
2022/07/24 10:44:24;;;;;;;4.57;3.33;;;;;;;34.02;24.13;98050.50;6198108;28;20746;-89
2022/07/24 10:47:27;;;;;;;5.95;3.55;;;;;;;33.67;23.78;98051.88;6209587;28;20236;-89
2022/07/24 10:51:00;;;;;;;4.22;3.92;;;;;;;33.55;23.93;98044.91;6205164;28;20608;-88
2022/07/24 10:54:16;;;;;;;3.85;3.25;;;;;;;32.67;25.48;98036.09;6190208;28;20235;-88
2022/07/24 10:57:50;;;;;;;3.90;3.45;;;;;;;33.33;24.92;98040.38;6221401;28;20236;-88
2022/07/24 11:00:53;;;;;;;3.78;3.47;;;;;;;33.84;24.54;98029.03;6195286;28;20237;-89
2022/07/24 11:03:55;;;;;;;3.33;3.00;;;;;;;33.49;24.12;98045.97;6221323;28;20247;-88
2022/07/24 11:07:12;;;;;;;3.30;3.10;;;;;;;34.58;22.34;98029.69;6188922;28;20328;-88
2022/07/24 11:10:15;;;;;;;4.68;3.13;;;;;;;34.30;22.65;98033.69;6189258;28;20579;-88
2022/07/24 11:13:32;;;;;;;3.55;3.25;;;;;;;33.42;23.27;98039.91;6188657;28;20242;-89
2022/07/24 11:16:36;;;;;;;3.28;2.97;;;;;;;33.43;23.22;98025.13;6190199;28;20236;-89
2022/07/24 11:19:39;;;;;;;7.22;3.22;;;;;;;33.97;23.17;98015.66;6189327;28;20255;-89
2022/07/24 11:22:53;;;;;;;3.05;2.85;;;;;;;33.39;23.04;98027.56;6205017;28;20228;-89
2022/07/24 11:26:32;;;;;;;3.08;2.80;;;;;;;33.89;23.02;98015.34;6189136;28;20332;-88
2022/07/24 11:29:38;;;;;;;4.18;2.92;;;;;;;34.35;22.28;98014.50;6189430;28;20984;-88
2022/07/24 11:32:41;;;;;;;3.35;3.05;;;;;;;34.17;21.88;98009.47;6204110;28;20231;-89
2022/07/24 11:35:43;;;;;;;3.40;3.17;;;;;;;33.34;23.29;98011.91;6204666;28;20228;-89
2022/07/24 11:38:45;;;;;;;3.47;3.10;;;;;;;33.74;23.18;98004.28;6189534;28;20735;-89
2022/07/24 11:41:53;;;;;;;4.22;3.17;;;;;;;34.48;23.35;97998.66;6203825;28;20952;-88
2022/07/24 11:44:56;;;;;;;5.63;3.17;;;;;;;33.98;23.03;98013.75;6189713;28;20225;-88
2022/07/24 11:47:58;;;;;;;4.82;3.33;;;;;;;34.31;22.74;98002.44;6205683;28;20264;-88
2022/07/24 11:51:05;;;;;;;3.05;2.85;;;;;;;35.02;22.26;97991.69;6204267;28;20242;-87
2022/07/24 11:54:29;;;;;;;5.65;3.17;;;;;;;35.32;22.34;97990.91;6218111;28;20236;-88
2022/07/24 11:57:35;;;;;;;3.40;3.20;;;;;;;34.88;22.63;97993.31;6224125;28;20267;-88
2022/07/24 12:00:58;;;;;;;3.22;3.03;;;;;;;35.42;22.40;97990.09;6194174;28;20232;-88
2022/07/24 12:04:00;;;;;;;4.18;3.10;;;;;;;36.07;21.13;97982.81;6202920;28;20255;-89
2022/07/24 12:07:12;;;;;;;5.28;3.35;;;;;;;35.58;21.45;97982.66;6203886;28;20326;-88
2022/07/24 12:10:19;;;;;;;4.85;3.22;;;;;;;35.81;20.83;97980.16;6203210;28;20690;-89
2022/07/24 12:13:21;;;;;;;3.42;3.17;;;;;;;35.79;21.25;97982.38;6195941;28;20596;-88
2022/07/24 12:16:28;;;;;;;3.85;3.55;;;;;;;36.21;20.74;97994.91;6184491;28;20229;-88
2022/07/24 12:19:33;;;;;;;3.83;3.33;;;;;;;36.56;20.29;97989.25;6207856;28;20228;-88
2022/07/24 12:22:36;;;;;;;3.95;3.65;;;;;;;36.90;20.38;97980.28;6221775;28;20262;-88
2022/07/24 12:26:00;;;;;;;4.05;3.38;;;;;;;37.00;19.20;97980.19;6229532;28;20696;-88
2022/07/24 12:29:11;;;;;;;3.75;3.42;;;;;;;36.59;20.07;97969.44;6203488;28;20233;-88
2022/07/24 12:32:17;;;;;;;3.60;3.30;;;;;;;35.97;20.29;97971.88;6160482;28;20237;-88
2022/07/24 12:35:19;;;;;;;6.68;3.63;;;;;;;35.65;21.29;97973.00;6160257;28;20244;-89
2022/07/24 12:38:29;;;;;;;3.90;3.60;;;;;;;35.66;20.92;97973.84;6198401;28;20244;-89
2022/07/24 12:41:40;;;;;;;3.55;3.25;;;;;;;34.86;22.06;97973.56;6183887;28;20278;-89
2022/07/24 12:44:50;;;;;;;3.80;3.50;;;;;;;35.97;21.07;97972.69;6205027;28;20863;-88
2022/07/24 12:48:20;;;;;;;3.95;3.40;;;;;;;35.95;19.87;97969.41;6183535;28;20252;-89
2022/07/24 12:51:22;;;;;;;3.80;3.50;;;;;;;36.29;20.26;97966.00;6184058;28;20236;-88
2022/07/24 12:54:33;;;;;;;3.30;3.10;;;;;;;35.88;20.66;97964.22;6184000;28;20245;-88
2022/07/24 12:57:39;;;;;;;3.58;3.28;;;;;;;35.44;21.22;97954.91;6185690;28;20464;-89
2022/07/24 13:00:55;;;;;;;3.78;3.42;;;;;;;35.53;20.78;97964.28;6168425;28;20240;-89
2022/07/24 13:04:02;;;;;;;5.22;3.42;;;;;;;36.00;20.84;97949.34;6183286;28;20226;-88
2022/07/24 13:07:08;;;;;;;3.60;3.30;;;;;;;36.24;21.04;97947.59;6183225;28;20719;-88
2022/07/24 13:10:10;;;;;;;4.93;3.47;;;;;;;36.49;20.92;97944.72;6182749;28;20233;-88
2022/07/24 13:13:13;;;;;;;7.38;3.63;;;;;;;36.63;20.99;97942.19;6167959;28;20239;-89
2022/07/24 13:16:19;;;;;;;4.97;3.45;;;;;;;37.01;20.29;97942.50;6185153;28;20233;-88
2022/07/24 13:19:22;;;;;;;3.85;3.50;;;;;;;36.11;20.26;97939.94;6185695;28;20597;-88
2022/07/24 13:22:26;;;;;;;4.75;3.30;;;;;;;36.37;20.69;97938.75;6183610;28;20285;-89
2022/07/24 13:25:47;;;;;;;5.18;4.68;;;;;;;36.19;20.67;97934.69;6184313;28;20286;-89
2022/07/24 13:28:50;;;;;;;4.45;4.05;;;;;;;35.46;21.07;97931.59;6205636;28;20726;-88
2022/07/24 13:31:54;;;;;;;5.50;3.97;;;;;;;36.28;20.95;97923.13;6191367;28;20240;-89
2022/07/24 13:34:57;;;;;;;3.60;3.30;;;;;;;36.33;20.63;97912.13;6209844;28;20217;-89
2022/07/24 13:37:59;;;;;;;3.60;3.30;;;;;;;36.39;21.08;97914.53;6206830;28;20232;-89
2022/07/24 13:41:02;;;;;;;3.38;3.17;;;;;;;37.31;20.48;97920.22;6190692;28;20228;-88
2022/07/24 13:44:05;;;;;;;3.72;3.42;;;;;;;38.12;19.72;97919.38;6190837;28;20304;-88
2022/07/24 13:47:08;;;;;;;3.67;3.38;;;;;;;38.63;19.01;97908.47;6194263;28;20232;-87
2022/07/24 13:50:11;;;;;;;3.22;3.03;;;;;;;38.46;18.68;97912.84;6207534;28;20319;-88
2022/07/24 13:53:13;;;;;;;3.92;3.63;;;;;;;37.33;19.74;97917.19;6223233;28;20327;-88
2022/07/24 13:56:16;;;;;;;3.40;3.10;;;;;;;37.83;19.28;97911.16;6189720;28;20227;-89
2022/07/24 13:59:18;;;;;;;3.70;3.35;;;;;;;38.53;18.57;97905.06;6189529;28;20239;-89
2022/07/24 14:02:20;;;;;;;3.50;3.20;;;;;;;38.90;18.44;97902.25;6190619;28;20236;-88
2022/07/24 14:05:24;;;;;;;3.88;3.58;;;;;;;39.69;17.53;97899.53;6206950;28;20236;-89
2022/07/24 14:08:27;;;;;;;3.55;3.25;;;;;;;40.62;17.38;97894.53;6206583;28;20236;-89
2022/07/24 14:11:30;;;;;;;5.18;4.20;;;;;;;41.16;16.14;97890.72;6206702;28;20228;-88
2022/07/24 14:14:33;;;;;;;3.65;3.35;;;;;;;41.67;15.78;97900.47;6199958;28;20685;-87
2022/07/24 14:17:36;;;;;;;3.80;3.50;;;;;;;43.54;14.62;97885.44;6189710;28;20942;-88
2022/07/24 14:20:42;;;;;;;3.60;3.30;;;;;;;45.51;13.17;97888.00;6198815;28;20232;-88
2022/07/24 14:23:44;;;;;;;3.63;3.42;;;;;;;46.23;12.06;97875.22;6228250;28;20512;-87
2022/07/24 14:26:48;;;;;;;3.80;3.40;;;;;;;46.40;11.89;97879.75;6220066;28;20224;-88
2022/07/24 14:29:50;;;;;;;4.05;3.17;;;;;;;43.94;13.82;97872.84;6237141;28;20726;-87